Time;durP1;ratioP1;P1;durP2;ratioP2;P2;SDS_P1;SDS_P2;PMS_P1;PMS_P2;Temp;Humidity;BMP_temperature;BMP_pressure;BME280_temperature;BME280_humidity;BME280_pressure;Samples;Min_cycle;Max_cycle;Signal;HPM_P1;HPM_P2
2023/10/20 00:02:02;;;;;;;37.10;24.30;;;11.20;99.90;;;;;;7582279;19;20018;-74
2023/10/20 00:04:34;;;;;;;37.33;22.45;;;11.10;99.90;;;;;;7585261;19;20018;-74
2023/10/20 00:07:07;;;;;;;34.90;22.17;;;11.20;99.90;;;;;;7576766;19;20129;-74
2023/10/20 00:09:41;;;;;;;34.38;21.80;;;11.20;99.90;;;;;;7575177;19;20546;-74
2023/10/20 00:12:13;;;;;;;37.03;22.75;;;11.20;99.90;;;;;;7580398;19;20098;-75
2023/10/20 00:14:46;;;;;;;39.55;24.00;;;11.20;99.90;;;;;;7576452;19;20014;-75
2023/10/20 00:17:19;;;;;;;35.38;22.60;;;11.20;99.90;;;;;;7592668;19;20049;-75
2023/10/20 00:19:52;;;;;;;34.90;22.65;;;11.20;99.90;;;;;;7598569;19;20039;-75
2023/10/20 00:22:24;;;;;;;34.63;22.17;;;11.20;99.90;;;;;;7600950;19;20081;-75
2023/10/20 00:24:56;;;;;;;35.72;24.10;;;11.20;99.90;;;;;;7598459;19;20100;-75
2023/10/20 00:27:28;;;;;;;44.10;25.48;;;11.20;99.90;;;;;;7600162;19;20029;-75
2023/10/20 00:30:02;;;;;;;34.75;21.77;;;11.20;99.90;;;;;;7597915;19;20014;-75
2023/10/20 00:32:35;;;;;;;46.15;25.27;;;11.20;99.90;;;;;;7599299;19;23344;-75
2023/10/20 00:35:09;;;;;;;38.55;23.83;;;11.20;99.90;;;;;;7597193;19;20753;-75
2023/10/20 00:37:42;;;;;;;36.60;23.45;;;11.20;99.90;;;;;;7592296;19;20098;-74
2023/10/20 00:40:14;;;;;;;34.60;21.88;;;11.30;99.90;;;;;;7586614;19;20019;-74
2023/10/20 00:42:46;;;;;;;35.50;21.92;;;11.30;99.90;;;;;;7577746;19;20093;-74
2023/10/20 00:45:19;;;;;;;36.38;22.90;;;11.30;99.90;;;;;;7580595;19;20010;-74
2023/10/20 00:47:52;;;;;;;41.97;25.10;;;11.30;99.90;;;;;;7580181;19;20014;-74
2023/10/20 00:50:25;;;;;;;37.78;24.10;;;11.30;99.90;;;;;;7588164;19;20037;-74
2023/10/20 00:52:57;;;;;;;41.80;26.70;;;11.30;99.90;;;;;;7568821;19;20014;-74
2023/10/20 00:55:30;;;;;;;37.92;23.92;;;11.30;99.90;;;;;;7577974;19;20106;-74
2023/10/20 00:58:03;;;;;;;43.22;28.58;;;11.30;99.90;;;;;;7575910;19;20007;-75
2023/10/20 01:00:35;;;;;;;45.25;26.60;;;11.30;99.90;;;;;;7564715;19;20091;-74
2023/10/20 01:03:08;;;;;;;42.53;27.73;;;11.30;99.90;;;;;;7584355;19;20078;-74
2023/10/20 01:05:41;;;;;;;41.88;28.92;;;11.30;99.90;;;;;;7595329;19;21003;-74
2023/10/20 01:08:14;;;;;;;49.58;30.83;;;11.30;99.90;;;;;;7594685;19;20037;-74
2023/10/20 01:10:46;;;;;;;48.70;29.33;;;11.30;99.90;;;;;;7598488;19;20030;-74
2023/10/20 01:13:19;;;;;;;53.47;30.10;;;11.30;99.90;;;;;;7601469;19;20033;-74
2023/10/20 01:15:51;;;;;;;44.55;29.13;;;11.40;99.90;;;;;;7589572;19;20018;-74
2023/10/20 01:18:24;;;;;;;44.80;30.27;;;11.40;99.90;;;;;;7594100;19;20098;-74
2023/10/20 01:20:57;;;;;;;43.80;29.17;;;11.50;99.90;;;;;;7600819;19;20024;-74
2023/10/20 01:23:29;;;;;;;46.78;28.90;;;11.40;99.90;;;;;;7597289;19;20799;-74
2023/10/20 01:26:02;;;;;;;47.30;29.45;;;11.40;99.90;;;;;;7599034;19;20694;-75
2023/10/20 01:28:34;;;;;;;43.03;28.10;;;11.40;99.90;;;;;;7595193;19;20051;-75
2023/10/20 01:31:06;;;;;;;43.55;29.30;;;11.40;99.90;;;;;;7594232;19;20022;-75
2023/10/20 01:33:39;;;;;;;43.38;27.85;;;11.40;99.90;;;;;;7596155;19;20014;-75
2023/10/20 01:36:11;;;;;;;48.40;28.88;;;11.40;99.90;;;;;;7594403;19;20014;-75
2023/10/20 01:38:44;;;;;;;42.15;28.15;;;11.40;99.90;;;;;;7590994;19;20033;-74
2023/10/20 01:41:16;;;;;;;43.03;28.48;;;11.40;99.90;;;;;;7592679;19;20014;-74
2023/10/20 01:43:48;;;;;;;47.83;29.90;;;11.40;99.90;;;;;;7595339;19;21602;-74
2023/10/20 01:46:21;;;;;;;45.17;28.85;;;11.40;99.90;;;;;;7592163;19;20467;-74
2023/10/20 01:48:53;;;;;;;44.92;27.85;;;11.40;99.90;;;;;;7590019;19;20017;-75
2023/10/20 01:51:26;;;;;;;43.60;28.40;;;11.30;99.90;;;;;;7598665;19;20162;-74
2023/10/20 01:53:59;;;;;;;48.63;28.63;;;11.40;99.90;;;;;;7584327;19;20443;-74
2023/10/20 01:56:31;;;;;;;39.90;28.08;;;11.30;99.90;;;;;;7595281;19;20019;-74
2023/10/20 01:59:04;;;;;;;46.17;28.10;;;11.30;99.90;;;;;;7592007;19;20033;-74
2023/10/20 02:01:36;;;;;;;42.20;27.85;;;11.20;99.90;;;;;;7593523;19;20875;-74
2023/10/20 02:04:08;;;;;;;49.03;28.88;;;11.30;99.90;;;;;;7595347;19;20010;-74
2023/10/20 02:06:42;;;;;;;47.40;29.17;;;11.20;99.90;;;;;;7584005;19;20050;-74
2023/10/20 02:09:14;;;;;;;;;;;11.20;99.90;;;;;;7572498;19;21106;-74
2023/10/20 02:11:47;;;;;;;50.28;30.58;;;11.20;99.90;;;;;;7589756;19;19914;-74
2023/10/20 02:14:19;;;;;;;41.22;27.65;;;11.30;99.90;;;;;;7595156;19;20959;-74
2023/10/20 02:16:52;;;;;;;42.80;27.67;;;11.20;99.90;;;;;;7592569;19;20492;-74
2023/10/20 02:19:24;;;;;;;42.40;27.35;;;11.20;99.90;;;;;;7594296;19;20029;-74
2023/10/20 02:21:59;;;;;;;54.22;29.35;;;11.20;99.90;;;;;;7587287;19;20642;-75
2023/10/20 02:24:31;;;;;;;45.42;28.60;;;11.20;99.90;;;;;;7600827;19;20096;-74
2023/10/20 02:27:05;;;;;;;40.55;26.73;;;11.20;99.90;;;;;;7593509;19;20018;-74
2023/10/20 02:29:37;;;;;;;54.80;30.17;;;11.20;99.90;;;;;;7596354;19;20619;-73
2023/10/20 02:32:12;;;;;;;45.05;29.08;;;11.20;99.90;;;;;;7595141;19;20048;-74
2023/10/20 02:34:44;;;;;;;45.33;29.20;;;11.20;99.90;;;;;;7592040;19;20033;-74
2023/10/20 02:37:17;;;;;;;47.38;30.05;;;11.10;99.90;;;;;;7593623;19;20007;-74
2023/10/20 02:39:50;;;;;;;45.65;31.13;;;11.10;99.90;;;;;;7591058;19;20046;-74
2023/10/20 02:42:22;;;;;;;45.95;30.27;;;11.10;99.90;;;;;;7595928;19;20007;-74
2023/10/20 02:44:55;;;;;;;51.27;31.37;;;11.10;99.90;;;;;;7596148;19;20029;-74
2023/10/20 02:47:27;;;;;;;53.88;32.22;;;11.10;99.90;;;;;;7590684;19;20385;-74
2023/10/20 02:50:00;;;;;;;59.35;32.63;;;11.10;99.90;;;;;;7580163;19;20021;-74
2023/10/20 02:52:32;;;;;;;54.45;32.33;;;11.10;99.90;;;;;;7585386;19;20059;-77
2023/10/20 02:55:05;;;;;;;57.95;34.22;;;11.10;99.90;;;;;;7581956;19;20746;-76
2023/10/20 02:57:38;;;;;;;46.87;31.67;;;11.10;99.90;;;;;;7581131;19;20423;-76
2023/10/20 03:00:14;;;;;;;63.05;34.45;;;11.10;99.90;;;;;;7582402;19;20019;-76
2023/10/20 03:02:48;;;;;;;49.13;33.25;;;11.10;99.90;;;;;;7561826;19;20018;-77
2023/10/20 03:05:21;;;;;;;56.35;33.22;;;11.20;99.90;;;;;;7572701;19;20498;-76
2023/10/20 03:07:53;;;;;;;52.53;32.67;;;11.20;99.90;;;;;;7588964;19;20025;-77
2023/10/20 03:10:26;;;;;;;52.00;34.05;;;11.10;99.90;;;;;;7595249;19;20019;-77
2023/10/20 03:12:58;;;;;;;57.60;34.28;;;11.20;99.90;;;;;;7581710;19;20034;-75
2023/10/20 03:15:31;;;;;;;57.80;32.47;;;11.10;99.90;;;;;;7567594;19;20109;-77
2023/10/20 03:18:04;;;;;;;52.78;32.47;;;11.20;99.90;;;;;;7571077;19;20019;-77
2023/10/20 03:20:36;;;;;;;58.63;33.55;;;11.10;99.90;;;;;;7573292;19;20063;-77
2023/10/20 03:23:13;;;;;;;51.53;32.20;;;11.20;99.90;;;;;;7568194;19;20018;-76
2023/10/20 03:25:46;;;;;;;54.08;33.38;;;11.20;99.90;;;;;;7581587;19;20010;-76
2023/10/20 03:28:18;;;;;;;50.58;31.88;;;11.20;99.90;;;;;;7579664;19;20472;-76
2023/10/20 03:30:50;;;;;;;51.08;32.50;;;11.20;99.90;;;;;;7589647;19;20048;-76
2023/10/20 03:33:23;;;;;;;62.20;36.03;;;11.20;99.90;;;;;;7588188;19;20019;-76
2023/10/20 03:36:00;;;;;;;53.03;33.35;;;11.30;99.90;;;;;;7585738;19;20018;-76
2023/10/20 03:38:32;;;;;;;59.65;35.17;;;11.20;99.90;;;;;;7591647;19;20049;-76
2023/10/20 03:41:09;;;;;;;56.37;35.03;;;11.20;99.90;;;;;;7591111;19;20011;-76
2023/10/20 03:43:42;;;;;;;53.60;32.72;;;11.20;99.90;;;;;;7595599;19;20010;-76
2023/10/20 03:46:16;;;;;;;66.43;37.47;;;11.20;99.90;;;;;;7583871;19;20480;-76
2023/10/20 03:48:48;;;;;;;55.25;32.38;;;11.10;99.90;;;;;;7591086;19;20353;-76
2023/10/20 03:51:21;;;;;;;52.10;32.60;;;11.10;99.90;;;;;;7585386;19;20029;-77
2023/10/20 03:53:55;;;;;;;57.17;34.13;;;11.10;99.90;;;;;;7597335;19;20456;-76
2023/10/20 03:56:27;;;;;;;48.67;32.38;;;11.10;99.90;;;;;;7578323;19;20913;-77
2023/10/20 03:58:59;;;;;;;48.50;32.00;;;11.10;99.90;;;;;;7582644;19;20010;-77
2023/10/20 04:01:32;;;;;;;47.97;31.05;;;11.20;99.90;;;;;;7584429;19;20019;-77
2023/10/20 04:04:08;;;;;;;48.03;32.03;;;11.30;99.90;;;;;;7591320;19;20018;-76
2023/10/20 04:06:40;;;;;;;49.75;32.17;;;11.30;99.90;;;;;;7595107;19;20027;-76
2023/10/20 04:09:12;;;;;;;55.78;31.13;;;11.30;99.90;;;;;;7589584;19;20058;-76
2023/10/20 04:11:45;;;;;;;55.17;33.60;;;11.20;99.90;;;;;;7597766;19;20022;-76
2023/10/20 04:14:18;;;;;;;52.60;32.72;;;11.20;99.90;;;;;;7587476;19;20018;-76
2023/10/20 04:16:50;;;;;;;61.40;37.00;;;11.20;99.90;;;;;;7571602;19;20034;-76
2023/10/20 04:19:25;;;;;;;55.20;33.92;;;11.20;99.90;;;;;;7597123;19;20435;-76
2023/10/20 04:21:58;;;;;;;58.67;36.38;;;11.20;99.90;;;;;;7595116;19;20026;-76
2023/10/20 04:24:30;;;;;;;55.87;34.77;;;11.20;99.90;;;;;;7590818;19;21129;-75
2023/10/20 04:27:03;;;;;;;58.55;35.30;;;11.20;99.90;;;;;;7591969;19;21094;-76
2023/10/20 04:29:47;;;;;;;55.33;35.17;;;11.20;99.90;;;;;;7582259;19;20011;-77
2023/10/20 04:44:57;;;;;;;57.08;36.17;;;11.30;99.90;;;;;;7582305;19;20574;-75
2023/10/20 05:01:03;;;;;;;55.83;36.60;;;11.20;99.90;;;;;;7596430;19;20014;-74
2023/10/20 05:03:45;;;;;;;63.17;39.35;;;11.20;99.90;;;;;;7586499;19;20032;-77
2023/10/20 05:06:25;;;;;;;63.15;37.97;;;11.20;99.90;;;;;;7593012;19;20041;-77
2023/10/20 05:08:58;;;;;;;65.97;38.63;;;11.20;99.90;;;;;;7594001;19;20038;-77
2023/10/20 05:11:30;;;;;;;64.78;39.40;;;11.20;99.90;;;;;;7591095;19;21031;-77
2023/10/20 05:14:03;;;;;;;58.53;37.33;;;11.20;99.90;;;;;;7588202;19;20667;-77
2023/10/20 05:16:35;;;;;;;55.90;36.17;;;11.20;99.90;;;;;;7572583;19;20455;-77
2023/10/20 05:19:07;;;;;;;62.20;38.75;;;11.20;99.90;;;;;;7589964;19;20018;-77
2023/10/20 05:21:40;;;;;;;67.60;39.20;;;11.20;99.90;;;;;;7579785;19;20042;-76
2023/10/20 05:24:12;;;;;;;63.03;37.47;;;11.20;99.90;;;;;;7597316;19;20014;-77
2023/10/20 05:26:46;;;;;;;58.03;37.05;;;11.20;99.90;;;;;;7602313;19;20147;-77
2023/10/20 05:29:18;;;;;;;;;;;11.20;99.90;;;;;;7587941;19;20066;-74
2023/10/20 05:31:50;;;;;;;69.10;39.45;;;11.20;99.90;;;;;;7599496;19;20283;-77
2023/10/20 05:34:23;;;;;;;61.30;37.20;;;11.20;99.90;;;;;;7591020;19;20025;-77
2023/10/20 05:36:55;;;;;;;60.25;37.38;;;11.20;99.90;;;;;;7584762;19;20007;-77
2023/10/20 05:39:28;;;;;;;64.78;38.90;;;11.20;99.90;;;;;;7588283;19;20813;-77
2023/10/20 05:42:01;;;;;;;57.80;35.72;;;11.20;99.90;;;;;;7616654;19;20022;-76
2023/10/20 05:44:33;;;;;;;55.97;35.58;;;11.20;99.90;;;;;;7615756;19;20018;-77
2023/10/20 05:47:06;;;;;;;53.15;35.55;;;11.20;99.90;;;;;;7616709;19;20487;-77
2023/10/20 05:49:38;;;;;;;55.78;35.28;;;11.20;99.90;;;;;;7613251;19;20043;-76
2023/10/20 05:52:10;;;;;;;59.22;34.28;;;11.30;99.90;;;;;;7620576;19;20151;-76
2023/10/20 05:54:43;;;;;;;52.40;32.33;;;11.30;99.90;;;;;;7618826;19;20033;-76
2023/10/20 05:57:16;;;;;;;58.97;35.50;;;11.30;99.90;;;;;;7616178;19;20115;-76
2023/10/20 05:59:49;;;;;;;49.75;31.33;;;11.30;99.90;;;;;;7615923;19;20011;-76
2023/10/20 06:02:22;;;;;;;48.37;31.90;;;11.30;99.90;;;;;;7610073;19;20019;-76
2023/10/20 06:04:55;;;;;;;45.78;30.92;;;11.30;99.90;;;;;;7606836;19;20271;-76
2023/10/20 06:07:27;;;;;;;52.92;31.38;;;11.30;99.90;;;;;;7614569;19;20018;-75
2023/10/20 06:09:59;;;;;;;48.85;30.48;;;11.30;99.90;;;;;;7617927;19;20018;-75
2023/10/20 06:12:32;;;;;;;58.05;33.80;;;11.30;99.90;;;;;;7616794;19;20019;-74
2023/10/20 06:15:08;;;;;;;61.15;36.65;;;11.30;99.90;;;;;;7618516;19;20018;-75
2023/10/20 06:17:41;;;;;;;56.10;31.95;;;11.30;99.90;;;;;;7608932;19;20038;-77
2023/10/20 06:20:14;;;;;;;57.28;34.38;;;11.20;99.90;;;;;;7618491;19;20018;-77
2023/10/20 06:22:46;;;;;;;48.55;30.90;;;11.20;99.90;;;;;;7607226;19;20080;-75
2023/10/20 06:25:18;;;;;;;54.72;32.13;;;11.20;99.90;;;;;;7620137;19;20018;-75
2023/10/20 06:27:50;;;;;;;43.38;28.00;;;11.20;99.90;;;;;;7619634;19;20018;-75
2023/10/20 06:30:23;;;;;;;40.95;26.33;;;11.20;99.90;;;;;;7623308;19;20045;-75
2023/10/20 06:35:50;;;;;;;39.10;25.65;;;11.30;99.90;;;;;;7623583;19;20031;-74
2023/10/20 06:38:44;;;;;;;40.42;25.90;;;11.30;99.90;;;;;;7620887;19;20023;-75
2023/10/20 06:41:17;;;;;;;42.42;25.55;;;11.40;99.90;;;;;;7618940;19;21190;-77
2023/10/20 06:43:50;;;;;;;38.58;23.88;;;11.40;99.90;;;;;;7621007;19;20219;-76
2023/10/20 06:46:23;;;;;;;40.63;25.33;;;11.40;99.90;;;;;;7608770;19;20049;-74
2023/10/20 06:48:56;;;;;;;38.78;24.40;;;11.40;99.90;;;;;;7617196;19;20097;-74
2023/10/20 06:51:29;;;;;;;37.72;21.85;;;11.40;99.90;;;;;;7610561;19;20022;-74
2023/10/20 06:54:02;;;;;;;;;;;11.50;99.90;;;;;;7612340;19;20437;-75
2023/10/20 06:56:34;;;;;;;33.75;21.42;;;11.50;99.90;;;;;;7608523;19;19919;-76
2023/10/20 06:59:06;;;;;;;35.10;21.98;;;11.50;99.90;;;;;;7605640;19;20018;-75
2023/10/20 07:01:39;;;;;;;30.88;21.38;;;11.50;99.90;;;;;;7608800;19;20921;-76
2023/10/20 07:04:16;;;;;;;32.78;21.98;;;11.60;99.90;;;;;;7609828;19;20090;-75
2023/10/20 07:06:51;;;;;;;31.05;21.60;;;11.50;99.90;;;;;;7606032;19;20014;-75
2023/10/20 07:09:23;;;;;;;32.42;20.50;;;11.60;99.90;;;;;;7606062;19;20043;-75
2023/10/20 07:11:56;;;;;;;29.02;19.30;;;11.70;99.90;;;;;;7609054;19;20022;-76
2023/10/20 07:14:28;;;;;;;29.00;18.38;;;11.70;99.90;;;;;;7609258;19;20626;-76
2023/10/20 07:17:03;;;;;;;26.20;18.27;;;11.80;99.90;;;;;;7603898;19;20023;-76
2023/10/20 07:19:35;;;;;;;27.55;18.27;;;11.90;99.90;;;;;;7602144;19;20011;-76
2023/10/20 07:22:09;;;;;;;26.95;17.75;;;11.90;99.90;;;;;;7606509;19;20011;-75
2023/10/20 07:24:42;;;;;;;19.33;13.95;;;12.00;99.90;;;;;;7609470;19;20022;-76
2023/10/20 07:27:16;;;;;;;20.88;13.50;;;12.00;99.90;;;;;;7608839;19;20021;-76
2023/10/20 07:29:48;;;;;;;20.70;14.13;;;12.10;99.90;;;;;;7604051;19;20011;-75
2023/10/20 07:32:21;;;;;;;19.17;13.63;;;12.20;99.90;;;;;;7605220;19;20030;-76
2023/10/20 07:34:53;;;;;;;18.42;12.43;;;12.20;99.90;;;;;;7610650;19;20463;-75
2023/10/20 07:37:25;;;;;;;18.95;11.00;;;12.30;99.90;;;;;;7602506;19;21085;-76
2023/10/20 07:39:58;;;;;;;14.65;10.32;;;12.30;99.90;;;;;;7610407;19;20065;-76
2023/10/20 07:42:31;;;;;;;14.98;9.75;;;12.40;99.90;;;;;;7607381;19;20064;-75
2023/10/20 07:45:04;;;;;;;14.10;9.30;;;12.50;99.90;;;;;;7606335;19;20638;-75
2023/10/20 07:47:37;;;;;;;12.33;8.50;;;12.60;99.90;;;;;;7606371;19;20095;-75
2023/10/20 07:50:10;;;;;;;10.82;7.28;;;12.70;99.90;;;;;;7606949;19;20287;-76
2023/10/20 07:52:42;;;;;;;12.20;7.07;;;12.80;99.90;;;;;;7605022;19;22044;-75
2023/10/20 07:55:15;;;;;;;9.85;6.72;;;12.90;99.90;;;;;;7603715;19;20526;-75
2023/10/20 07:57:47;;;;;;;9.63;5.90;;;13.10;99.90;;;;;;7606800;19;20015;-76
2023/10/20 08:00:19;;;;;;;8.27;5.28;;;13.30;99.90;;;;;;7606850;19;20006;-75
2023/10/20 08:02:51;;;;;;;7.10;5.13;;;13.50;99.90;;;;;;7605002;19;20561;-76
2023/10/20 08:05:27;;;;;;;6.03;4.70;;;13.70;99.90;;;;;;7603265;19;20014;-76
2023/10/20 08:08:01;;;;;;;8.50;5.22;;;13.80;99.90;;;;;;7606013;19;20446;-75
2023/10/20 08:10:35;;;;;;;7.43;5.00;;;13.90;99.90;;;;;;7615530;19;20022;-76
2023/10/20 08:13:09;;;;;;;6.97;4.75;;;14.10;99.90;;;;;;7616024;19;20021;-76
2023/10/20 08:15:42;;;;;;;9.07;5.60;;;14.20;99.90;;;;;;7614490;19;20425;-75
2023/10/20 08:18:16;;;;;;;9.40;4.10;;;14.30;99.90;;;;;;7613129;19;20029;-75
2023/10/20 08:20:49;;;;;;;10.48;5.03;;;14.40;99.90;;;;;;7610241;19;20015;-76
2023/10/20 08:23:21;;;;;;;6.82;4.85;;;14.60;99.90;;;;;;7611564;19;20078;-75
2023/10/20 08:25:53;;;;;;;7.80;4.93;;;14.70;99.90;;;;;;7613594;19;20488;-76
2023/10/20 08:28:26;;;;;;;11.43;4.75;;;14.70;99.90;;;;;;7614501;19;20011;-75
2023/10/20 08:31:10;;;;;;;8.93;5.10;;;14.80;99.90;;;;;;7614203;19;20010;-75
2023/10/20 08:33:43;;;;;;;7.47;4.72;;;14.90;99.90;;;;;;7615727;19;20015;-75
2023/10/20 08:36:16;;;;;;;7.90;5.00;;;15.00;99.90;;;;;;7615689;19;20026;-75
2023/10/20 08:38:52;;;;;;;6.30;4.75;;;15.10;99.90;;;;;;7608858;19;21771;-76
2023/10/20 08:41:24;;;;;;;7.93;4.75;;;15.20;99.90;;;;;;7614391;19;20019;-76
2023/10/20 08:43:56;;;;;;;5.30;4.28;;;15.30;99.90;;;;;;7613400;19;20019;-76
2023/10/20 08:46:30;;;;;;;5.72;4.60;;;15.40;99.90;;;;;;7606712;19;20022;-76
2023/10/20 08:49:04;;;;;;;5.70;4.53;;;15.40;99.90;;;;;;7612434;19;20027;-76
2023/10/20 08:51:39;;;;;;;8.63;4.63;;;15.40;99.90;;;;;;7612922;19;20026;-75
2023/10/20 08:54:13;;;;;;;6.45;4.45;;;15.50;99.90;;;;;;7614069;19;20060;-76
2023/10/20 08:56:46;;;;;;;5.20;4.10;;;15.60;99.90;;;;;;7612526;19;20651;-75
2023/10/20 08:59:19;;;;;;;5.60;3.95;;;15.70;99.90;;;;;;7610501;19;20015;-75
2023/10/20 09:01:51;;;;;;;7.27;4.97;;;15.60;99.90;;;;;;7612802;19;20014;-75
2023/10/20 09:04:26;;;;;;;5.73;4.30;;;15.60;99.90;;;;;;7614142;19;20062;-76
2023/10/20 09:07:00;;;;;;;8.63;5.47;;;15.60;99.90;;;;;;7613586;19;20026;-76
2023/10/20 09:09:34;;;;;;;7.07;5.18;;;15.60;99.90;;;;;;7611209;19;20128;-76
2023/10/20 09:12:08;;;;;;;6.68;4.45;;;15.60;99.90;;;;;;7614257;19;20052;-75
2023/10/20 09:14:41;;;;;;;6.65;4.75;;;15.70;99.90;;;;;;7610844;19;20593;-75
2023/10/20 09:17:23;;;;;;;6.68;4.47;;;15.80;99.90;;;;;;7601491;19;20018;-75
2023/10/20 09:20:11;;;;;;;6.25;4.38;;;15.80;99.90;;;;;;7596229;19;20026;-76
2023/10/20 09:22:44;;;;;;;8.18;5.35;;;15.80;99.90;;;;;;7602623;19;21124;-75
2023/10/20 09:25:16;;;;;;;7.13;5.05;;;15.80;99.90;;;;;;7609740;19;20488;-76
2023/10/20 09:27:49;;;;;;;7.03;5.57;;;15.90;99.90;;;;;;7610062;19;20034;-75
2023/10/20 09:30:21;;;;;;;8.97;5.33;;;15.90;99.90;;;;;;7609015;19;21218;-76
2023/10/20 09:32:54;;;;;;;6.47;5.05;;;15.90;99.90;;;;;;7611117;19;20022;-75
2023/10/20 09:35:26;;;;;;;7.43;4.97;;;16.00;99.90;;;;;;7613578;19;20134;-75
2023/10/20 09:38:06;;;;;;;8.75;4.50;;;16.00;99.90;;;;;;7610430;19;20086;-75
2023/10/20 09:40:45;;;;;;;6.35;4.68;;;16.10;99.90;;;;;;7608786;19;20922;-75
2023/10/20 09:43:30;;;;;;;10.80;5.10;;;16.20;99.90;;;;;;7615155;19;20790;-75
2023/10/20 09:46:53;;;;;;;6.57;4.65;;;16.30;99.90;;;;;;7613270;19;20073;-75
2023/10/20 09:49:27;;;;;;;7.20;5.10;;;16.40;99.90;;;;;;7608111;19;20026;-75
2023/10/20 09:51:59;;;;;;;5.95;4.18;;;16.50;99.90;;;;;;7608730;19;20480;-75
2023/10/20 09:54:34;;;;;;;5.28;3.97;;;16.60;99.90;;;;;;7610923;19;20015;-75
2023/10/20 09:57:08;;;;;;;4.88;3.47;;;16.70;99.90;;;;;;7612905;19;20022;-75
2023/10/20 09:59:41;;;;;;;5.18;3.85;;;16.90;99.90;;;;;;7609417;19;20014;-75
2023/10/20 10:02:15;;;;;;;3.92;3.28;;;17.10;99.90;;;;;;7612005;19;20015;-76
2023/10/20 10:04:47;;;;;;;4.43;3.42;;;17.50;99.90;;;;;;7608421;19;20025;-75
2023/10/20 10:07:32;;;;;;;5.13;3.47;;;17.80;99.90;;;;;;7612311;19;20526;-75
2023/10/20 10:10:06;;;;;;;4.13;3.45;;;18.00;99.90;;;;;;7612269;19;20022;-75
2023/10/20 10:12:57;;;;;;;6.03;3.42;;;18.20;99.90;;;;;;7608381;19;20018;-75
2023/10/20 10:15:45;;;;;;;5.22;3.45;;;18.30;99.90;;;;;;7612202;19;20098;-75
2023/10/20 10:18:18;;;;;;;4.72;3.42;;;18.50;99.90;;;;;;7608570;19;20501;-75
2023/10/20 10:20:51;;;;;;;4.25;3.10;;;18.60;99.90;;;;;;7603074;19;20019;-75
2023/10/20 10:23:28;;;;;;;5.13;3.37;;;18.70;99.90;;;;;;7610569;19;20254;-74
2023/10/20 10:26:00;;;;;;;4.07;3.20;;;18.90;99.90;;;;;;7603819;19;20299;-75
2023/10/20 10:28:32;;;;;;;4.50;3.00;;;19.10;99.90;;;;;;7609540;19;20051;-75
2023/10/20 10:31:05;;;;;;;9.23;2.85;;;19.40;99.90;;;;;;7603844;19;20030;-74
2023/10/20 10:33:37;;;;;;;3.17;2.85;;;19.70;99.90;;;;;;7608607;19;20019;-78
2023/10/20 10:36:10;;;;;;;4.63;2.55;;;19.90;99.90;;;;;;7612326;19;20453;-78
2023/10/20 10:38:43;;;;;;;3.90;2.60;;;20.10;99.90;;;;;;7605977;19;20484;-77
2023/10/20 10:41:23;;;;;;;4.35;2.92;;;20.30;99.90;;;;;;7610868;19;20025;-76
2023/10/20 10:43:55;;;;;;;5.00;2.50;;;20.50;99.90;;;;;;7605752;19;20019;-76
2023/10/20 10:46:37;;;;;;;2.78;2.22;;;20.60;99.90;;;;;;7611723;19;20388;-73
2023/10/20 10:49:13;;;;;;;5.35;2.38;;;20.60;99.90;;;;;;7608674;19;20017;-73
2023/10/20 10:51:47;;;;;;;3.08;2.20;;;20.60;99.90;;;;;;7602392;19;20014;-73
2023/10/20 10:54:23;;;;;;;4.40;2.85;;;20.60;99.90;;;;;;7604290;19;20010;-73
2023/10/20 10:56:57;;;;;;;4.18;2.28;;;20.60;99.90;;;;;;7605129;19;20520;-73
2023/10/20 10:59:30;;;;;;;4.80;2.42;;;20.50;99.90;;;;;;7607111;19;20028;-74
2023/10/20 11:02:05;;;;;;;2.88;2.45;;;20.50;99.90;;;;;;7605256;19;20025;-73
2023/10/20 11:04:37;;;;;;;4.00;2.65;;;20.40;99.90;;;;;;7608512;19;20026;-73
2023/10/20 11:07:13;;;;;;;2.63;2.30;;;20.40;99.90;;;;;;7604992;19;20085;-73
2023/10/20 11:09:47;;;;;;;5.55;2.40;;;20.50;99.90;;;;;;7607285;19;20093;-73
2023/10/20 11:12:22;;;;;;;3.88;2.55;;;20.80;99.90;;;;;;7610944;19;20014;-73
2023/10/20 11:15:00;;;;;;;2.92;2.00;;;20.90;99.90;;;;;;7606879;19;20638;-72
2023/10/20 11:17:32;;;;;;;5.00;2.67;;;20.90;99.90;;;;;;7592868;19;20030;-73
2023/10/20 11:20:06;;;;;;;4.38;2.55;;;20.90;99.90;;;;;;7604079;19;20034;-73
2023/10/20 11:22:39;;;;;;;6.40;2.22;;;20.90;99.90;;;;;;7586974;19;20030;-73
2023/10/20 11:25:19;;;;;;;3.20;2.08;;;20.80;99.90;;;;;;7596039;19;20014;-73
2023/10/20 11:27:55;;;;;;;4.82;1.55;;;21.00;99.90;;;;;;7604531;19;20033;-73
2023/10/20 11:30:34;;;;;;;4.72;1.58;;;21.30;99.90;;;;;;7607539;19;20096;-73
2023/10/20 11:33:10;;;;;;;6.43;2.03;;;23.50;98.90;;;;;;7604015;19;20613;-73
2023/10/20 11:35:47;;;;;;;5.88;1.83;;;24.00;96.90;;;;;;7603177;19;20061;-73
2023/10/20 11:38:19;;;;;;;6.88;1.95;;;23.40;97.80;;;;;;7604666;19;20010;-73
2023/10/20 11:40:52;;;;;;;2.08;1.65;;;22.70;98.20;;;;;;7605850;19;20021;-73
2023/10/20 11:43:24;;;;;;;2.97;1.70;;;22.00;98.20;;;;;;7608079;19;20678;-73
2023/10/20 11:45:56;;;;;;;3.45;1.73;;;22.20;98.90;;;;;;7610654;19;20514;-74
2023/10/20 11:48:28;;;;;;;3.20;1.65;;;22.40;98.30;;;;;;7612306;19;20085;-73
2023/10/20 11:51:01;;;;;;;3.63;1.90;;;22.40;98.00;;;;;;7611262;19;20108;-74
2023/10/20 11:53:34;;;;;;;7.18;1.98;;;22.60;97.90;;;;;;7603834;19;20019;-73
2023/10/20 11:56:06;;;;;;;4.13;1.80;;;22.30;97.90;;;;;;7611001;19;20015;-73
2023/10/20 11:58:39;;;;;;;2.85;1.35;;;22.50;98.50;;;;;;7610284;19;20978;-73
2023/10/20 12:01:11;;;;;;;3.70;1.40;;;22.90;97.20;;;;;;7609336;19;20026;-73
2023/10/20 12:03:44;;;;;;;5.55;1.20;;;22.90;97.10;;;;;;7616885;19;20030;-73
2023/10/20 12:06:17;;;;;;;2.13;0.90;;;22.80;96.30;;;;;;7601512;19;20022;-73
2023/10/20 12:08:50;;;;;;;3.10;0.85;;;22.30;96.30;;;;;;7612369;19;20037;-73
2023/10/20 12:11:22;;;;;;;1.48;1.05;;;21.90;97.10;;;;;;7616078;19;20022;-73
2023/10/20 12:13:54;;;;;;;2.33;1.10;;;21.70;97.80;;;;;;7615804;19;20025;-73
2023/10/20 12:16:27;;;;;;;3.83;1.02;;;21.40;98.50;;;;;;7605072;19;20048;-73
2023/10/20 12:19:05;;;;;;;3.13;1.67;;;21.30;98.50;;;;;;7591890;19;20733;-73
2023/10/20 12:21:38;;;;;;;2.65;1.00;;;21.30;98.90;;;;;;7591091;19;20619;-74
2023/10/20 12:24:11;;;;;;;2.67;1.20;;;21.20;98.80;;;;;;7596478;19;20010;-75
2023/10/20 12:26:43;;;;;;;1.77;1.00;;;21.30;99.20;;;;;;7601320;19;20117;-75
2023/10/20 12:29:19;;;;;;;3.15;1.50;;;21.40;98.90;;;;;;7596022;19;20026;-75
2023/10/20 12:31:51;;;;;;;3.95;1.40;;;21.50;99.30;;;;;;7605881;19;20984;-75
2023/10/20 12:34:24;;;;;;;3.78;1.33;;;21.50;99.60;;;;;;7593078;19;20487;-74
2023/10/20 12:36:57;;;;;;;4.53;1.30;;;21.30;98.70;;;;;;7581533;19;20014;-75
2023/10/20 12:39:31;;;;;;;3.67;0.88;;;21.10;98.50;;;;;;7588007;19;20007;-75
2023/10/20 12:42:04;;;;;;;1.48;1.00;;;21.00;98.60;;;;;;7564650;19;20021;-75
2023/10/20 12:44:38;;;;;;;3.10;1.05;;;20.90;99.20;;;;;;7577722;19;20018;-75
2023/10/20 12:47:11;;;;;;;2.40;1.33;;;21.00;99.50;;;;;;7574533;19;20014;-75
2023/10/20 12:49:44;;;;;;;1.83;1.15;;;21.30;98.40;;;;;;7577891;19;20307;-75
2023/10/20 12:52:17;;;;;;;3.15;1.60;;;21.90;98.20;;;;;;7592801;19;20990;-75
2023/10/20 12:54:51;;;;;;;3.55;1.50;;;22.00;98.10;;;;;;7591841;19;20023;-74
2023/10/20 12:57:23;;;;;;;2.33;1.65;;;22.30;97.60;;;;;;7597309;19;20038;-74
2023/10/20 12:59:55;;;;;;;2.20;1.45;;;22.40;97.90;;;;;;7578210;19;20377;-75
2023/10/20 13:02:27;;;;;;;1.92;1.42;;;22.30;97.90;;;;;;7595644;19;20753;-75
2023/10/20 13:05:00;;;;;;;3.72;1.67;;;22.10;98.50;;;;;;7610450;19;20026;-75
2023/10/20 13:07:32;;;;;;;2.97;1.85;;;21.80;98.30;;;;;;7609996;19;20047;-75
2023/10/20 13:10:05;;;;;;;2.45;1.60;;;21.60;98.40;;;;;;7612019;19;20539;-75
2023/10/20 13:12:37;;;;;;;2.85;1.80;;;21.40;99.20;;;;;;7610931;19;20022;-76
2023/10/20 13:15:10;;;;;;;1.88;1.58;;;21.30;98.90;;;;;;7610877;19;20033;-75
2023/10/20 13:17:42;;;;;;;3.23;1.73;;;21.20;99.60;;;;;;7611560;19;20011;-75
2023/10/20 13:20:14;;;;;;;9.10;2.67;;;21.00;99.90;;;;;;7610558;19;20297;-75
2023/10/20 13:22:47;;;;;;;4.53;2.33;;;20.70;99.90;;;;;;7602148;19;20579;-76
2023/10/20 13:25:22;;;;;;;1.70;1.50;;;20.50;99.90;;;;;;7609762;19;20520;-74
2023/10/20 13:27:56;;;;;;;3.53;1.85;;;20.40;99.90;;;;;;7593371;19;20030;-75
2023/10/20 13:30:28;;;;;;;3.97;1.90;;;20.50;99.90;;;;;;7588378;19;20014;-77
2023/10/20 13:33:03;;;;;;;2.90;1.92;;;21.80;98.70;;;;;;7592372;19;20519;-76
2023/10/20 13:35:36;;;;;;;3.25;2.10;;;21.50;98.80;;;;;;7582369;19;20471;-74
2023/10/20 13:38:09;;;;;;;4.28;2.20;;;21.10;99.30;;;;;;7592333;19;20050;-77